Time;durP1;ratioP1;P1;durP2;ratioP2;P2;SDS_P1;SDS_P2;PMS_P1;PMS_P2;Temp;Humidity;BMP_temperature;BMP_pressure;BME280_temperature;BME280_humidity;BME280_pressure;Samples;Min_cycle;Max_cycle;Signal;HPM_P1;HPM_P2
2023/03/02 20:03:46;;;;;;;103.30;40.78;;;;;;;;;;6300145;28;20406;-51
2023/03/02 20:06:47;;;;;;;99.47;40.30;;;;;;;;;;6304287;28;20487;-49
2023/03/02 20:09:48;;;;;;;96.35;41.03;;;;;;;;;;6301467;28;20071;-52
2023/03/02 20:12:49;;;;;;;121.53;46.20;;;;;;;;;;6302473;28;20081;-48
2023/03/02 20:15:50;;;;;;;127.38;47.42;;;;;;;;;;6303403;28;20526;-50
2023/03/02 20:18:51;;;;;;;120.40;46.20;;;;;;;;;;6305893;28;20581;-52
2023/03/02 20:21:52;;;;;;;147.23;50.60;;;;;;;;;;6304752;28;20059;-50
2023/03/02 20:24:52;;;;;;;123.63;47.03;;;;;;;;;;6299753;28;20048;-54
2023/03/02 20:27:54;;;;;;;108.13;45.28;;;;;;;;;;6304905;28;20048;-50
2023/03/02 20:30:57;;;;;;;106.90;45.43;;;;;;;;;;6303350;28;20076;-51
2023/03/02 20:33:58;;;;;;;113.53;45.30;;;;;;;;;;6298892;28;20048;-50
2023/03/02 20:36:58;;;;;;;109.60;43.80;;;;;;;;;;6304872;28;20055;-51
2023/03/02 20:39:59;;;;;;;91.63;39.13;;;;;;;;;;6303785;28;20075;-49
2023/03/02 20:43:00;;;;;;;93.28;40.63;;;;;;;;;;6300105;28;20182;-54
2023/03/02 20:46:01;;;;;;;104.00;44.03;;;;;;;;;;6303230;28;20479;-50
2023/03/02 20:49:03;;;;;;;99.93;43.88;;;;;;;;;;6304106;28;20098;-56
2023/03/02 20:52:05;;;;;;;106.60;42.22;;;;;;;;;;6302692;28;20090;-52
2023/03/02 20:55:06;;;;;;;102.72;42.92;;;;;;;;;;6299619;28;20052;-50
2023/03/02 20:58:08;;;;;;;114.93;48.10;;;;;;;;;;6304011;28;20056;-53
2023/03/02 21:01:10;;;;;;;132.27;52.40;;;;;;;;;;6302094;28;20060;-51
2023/03/02 21:04:11;;;;;;;133.93;51.38;;;;;;;;;;6293510;28;20075;-49
2023/03/02 21:07:12;;;;;;;124.90;49.45;;;;;;;;;;6290948;28;20045;-53
2023/03/02 21:10:16;;;;;;;113.93;46.08;;;;;;;;;;6290272;28;20055;-55
2023/03/02 21:13:18;;;;;;;111.15;43.70;;;;;;;;;;6279251;28;20060;-52
2023/03/02 21:16:23;;;;;;;104.67;42.97;;;;;;;;;;6274449;28;20049;-50
2023/03/02 21:19:25;;;;;;;100.28;40.97;;;;;;;;;;6273874;28;20054;-50
2023/03/02 21:22:25;;;;;;;108.35;41.15;;;;;;;;;;6271073;28;20707;-50
2023/03/02 21:25:27;;;;;;;107.60;41.90;;;;;;;;;;6270653;28;20040;-49
2023/03/02 21:28:27;;;;;;;113.95;41.78;;;;;;;;;;6274902;28;20044;-49
2023/03/02 21:31:28;;;;;;;122.28;43.75;;;;;;;;;;6273734;28;20098;-56
2023/03/02 21:34:28;;;;;;;113.30;43.08;;;;;;;;;;6270464;28;20064;-52
2023/03/02 21:37:29;;;;;;;125.50;44.50;;;;;;;;;;6273575;28;20048;-52
2023/03/02 21:40:39;;;;;;;120.13;43.10;;;;;;;;;;6273892;28;20102;-49
2023/03/02 21:43:40;;;;;;;102.70;40.58;;;;;;;;;;6267694;28;20055;-52
2023/03/02 21:46:41;;;;;;;91.40;37.60;;;;;;;;;;6274769;28;20045;-48
2023/03/02 21:49:41;;;;;;;84.13;36.42;;;;;;;;;;6271848;28;20094;-50
2023/03/02 21:52:42;;;;;;;93.70;37.42;;;;;;;;;;6270275;28;20487;-52
2023/03/02 21:55:44;;;;;;;93.25;36.85;;;;;;;;;;6271095;28;20059;-49
2023/03/02 21:58:49;;;;;;;94.87;38.10;;;;;;;;;;6274497;28;20048;-51
2023/03/02 22:01:50;;;;;;;89.45;35.72;;;;;;;;;;6269465;28;21068;-51
2023/03/02 22:04:51;;;;;;;94.38;39.17;;;;;;;;;;6268962;28;20101;-53
2023/03/02 22:07:52;;;;;;;118.68;48.88;;;;;;;;;;6275385;28;20044;-53
2023/03/02 22:10:53;;;;;;;109.70;45.67;;;;;;;;;;6272915;28;20532;-50
2023/03/02 22:13:57;;;;;;;125.10;48.35;;;;;;;;;;6266647;28;20044;-50
2023/03/02 22:16:57;;;;;;;107.22;44.30;;;;;;;;;;6272810;28;20059;-51
2023/03/02 22:19:58;;;;;;;99.43;39.78;;;;;;;;;;6273292;28;20160;-54
2023/03/02 22:22:58;;;;;;;107.10;42.53;;;;;;;;;;6267692;28;20045;-54
2023/03/02 22:26:11;;;;;;;104.30;43.42;;;;;;;;;;6269819;28;20048;-54
2023/03/02 22:29:16;;;;;;;107.03;43.13;;;;;;;;;;6274373;28;20057;-50
2023/03/02 22:32:34;;;;;;;103.22;42.25;;;;;;;;;;6273646;28;20044;-52
2023/03/02 22:35:34;;;;;;;106.43;42.72;;;;;;;;;;6270070;28;20668;-54
2023/03/02 22:38:35;;;;;;;105.90;41.17;;;;;;;;;;6273619;28;20559;-54
2023/03/02 22:41:36;;;;;;;104.20;42.13;;;;;;;;;;6273936;28;20052;-52
2023/03/02 22:44:37;;;;;;;93.90;40.38;;;;;;;;;;6266171;28;20045;-51
2023/03/02 22:47:37;;;;;;;104.55;41.55;;;;;;;;;;6272639;28;20052;-50
2023/03/02 22:50:38;;;;;;;98.80;41.28;;;;;;;;;;6271076;28;20051;-54
2023/03/02 22:53:49;;;;;;;94.32;40.35;;;;;;;;;;6266228;28;20545;-51
2023/03/02 22:56:51;;;;;;;113.15;45.60;;;;;;;;;;6270683;28;20821;-52
2023/03/02 22:59:56;;;;;;;;;;;;;;;;;;6276885;28;20083;-52
2023/03/02 23:02:57;;;;;;;110.82;42.80;;;;;;;;;;6269707;28;19928;-55
2023/03/02 23:05:57;;;;;;;102.28;41.65;;;;;;;;;;6267977;28;20548;-54
2023/03/02 23:09:00;;;;;;;102.13;43.03;;;;;;;;;;6271273;28;20186;-53
2023/03/02 23:12:11;;;;;;;94.97;38.88;;;;;;;;;;6268894;28;20523;-59
2023/03/02 23:15:19;;;;;;;97.78;39.83;;;;;;;;;;6272596;28;20457;-59
2023/03/02 23:18:28;;;;;;;88.03;37.42;;;;;;;;;;6270780;28;20041;-53
2023/03/02 23:21:44;;;;;;;93.28;38.15;;;;;;;;;;6271616;28;20045;-51
2023/03/02 23:24:44;;;;;;;89.43;37.75;;;;;;;;;;6270594;28;20048;-54
2023/03/02 23:27:45;;;;;;;92.68;38.38;;;;;;;;;;6271433;28;20142;-57
2023/03/02 23:30:46;;;;;;;88.70;37.22;;;;;;;;;;6267871;28;20044;-57
2023/03/02 23:33:47;;;;;;;84.20;35.28;;;;;;;;;;6270423;28;20043;-53
2023/03/02 23:36:47;;;;;;;77.45;33.95;;;;;;;;;;6265848;28;20045;-54
2023/03/02 23:39:48;;;;;;;85.30;34.58;;;;;;;;;;6268709;28;20710;-53
2023/03/02 23:42:49;;;;;;;87.15;36.35;;;;;;;;;;6267290;28;20053;-53
2023/03/02 23:45:50;;;;;;;76.32;32.78;;;;;;;;;;6269513;28;20442;-53
2023/03/02 23:48:50;;;;;;;83.65;35.03;;;;;;;;;;6271093;28;20041;-57
2023/03/02 23:51:51;;;;;;;86.90;34.38;;;;;;;;;;6285550;28;20403;-50
2023/03/02 23:54:52;;;;;;;83.75;37.17;;;;;;;;;;6286454;28;20553;-52
2023/03/02 23:57:53;;;;;;;83.85;34.08;;;;;;;;;;6265464;28;20049;-58
